createdAt,value
2018-10-21T00:03:05.550Z,85.07
2018-10-21T00:08:24.107Z,85.23
2018-10-21T00:13:42.645Z,85.59
2018-10-21T00:19:01.159Z,86.06
2018-10-21T00:24:19.860Z,85.97
2018-10-21T00:29:38.719Z,85.32
2018-10-21T00:34:57.307Z,86.69
2018-10-21T00:40:15.879Z,85.48
2018-10-21T00:45:34.461Z,85.27
2018-10-21T00:50:53.445Z,86.36
2018-10-21T00:56:12.021Z,86.54
2018-10-21T01:01:30.636Z,85.58
2018-10-21T01:06:49.141Z,86.99
2018-10-21T01:12:07.634Z,86.56
2018-10-21T01:17:26.201Z,86.80
2018-10-21T01:22:44.934Z,85.84
2018-10-21T01:28:03.613Z,87.14
2018-10-21T01:33:22.403Z,86.75
2018-10-21T01:38:41.035Z,86.42
2018-10-21T01:43:59.545Z,87.01
2018-10-21T01:49:24.290Z,87.47
2018-10-21T01:54:42.795Z,86.74
2018-10-21T02:00:01.345Z,85.99
2018-10-21T02:05:19.905Z,85.89
2018-10-21T02:10:38.436Z,85.53
2018-10-21T02:15:57.089Z,86.00
2018-10-21T02:21:15.731Z,86.05
2018-10-21T02:26:34.239Z,85.95
2018-10-21T02:31:52.755Z,86.13
2018-10-21T02:37:11.358Z,87.60
2018-10-21T02:42:30.036Z,89.13
2018-10-21T02:47:48.594Z,89.16
2018-10-21T02:53:07.284Z,88.41
2018-10-21T02:58:25.847Z,87.78
2018-10-21T03:03:44.515Z,87.44
2018-10-21T03:09:03.182Z,86.65
2018-10-21T03:14:21.811Z,87.23
2018-10-21T03:19:40.357Z,87.30
2018-10-21T03:24:58.904Z,87.36
2018-10-21T03:30:17.622Z,86.96
2018-10-21T03:35:36.173Z,87.92
2018-10-21T03:40:54.761Z,88.12
2018-10-21T03:46:14.437Z,88.09
2018-10-21T03:51:33.118Z,87.77
2018-10-21T03:56:51.689Z,87.45
2018-10-21T04:02:10.247Z,88.30
2018-10-21T04:07:28.818Z,88.37
2018-10-21T04:12:47.327Z,88.33
2018-10-21T04:18:05.900Z,88.41
2018-10-21T04:23:24.384Z,87.31
2018-10-21T04:28:43.326Z,87.34
2018-10-21T04:34:01.977Z,88.90
2018-10-21T04:39:31.564Z,88.53
2018-10-21T04:44:50.067Z,89.21
2018-10-21T04:50:09.897Z,88.47
2018-10-21T04:55:28.486Z,88.42
2018-10-21T05:00:47.180Z,88.02
2018-10-21T05:06:06.459Z,87.61
2018-10-21T05:11:25.828Z,87.16
2018-10-21T05:16:44.912Z,87.97
2018-10-21T05:22:04.202Z,89.42
2018-10-21T05:27:22.750Z,88.92
2018-10-21T05:32:41.535Z,88.81
2018-10-21T05:38:00.195Z,88.38
2018-10-21T05:43:18.716Z,88.26
2018-10-21T05:48:37.287Z,88.43
2018-10-21T05:53:55.850Z,88.48
2018-10-21T05:59:15.395Z,88.88
2018-10-21T06:04:34.057Z,90.49
2018-10-21T06:09:53.176Z,90.25
2018-10-21T06:15:12.053Z,89.43
2018-10-21T06:20:34.163Z,87.99
2018-10-21T06:25:52.956Z,88.38
2018-10-21T06:31:11.689Z,87.85
2018-10-21T06:36:30.555Z,87.59
2018-10-21T06:41:49.196Z,88.06
2018-10-21T06:47:07.855Z,89.26
2018-10-21T06:52:26.388Z,88.96
2018-10-21T06:57:45.715Z,88.68
2018-10-21T07:03:04.254Z,88.43
2018-10-21T07:08:22.842Z,89.16
2018-10-21T07:13:41.475Z,88.77
2018-10-21T07:19:00.277Z,89.77
2018-10-21T07:24:18.884Z,90.20
2018-10-21T07:29:37.651Z,89.80
2018-10-21T07:34:56.525Z,89.14
2018-10-21T07:40:15.180Z,88.28
2018-10-21T07:45:33.903Z,87.87
2018-10-21T07:50:52.576Z,88.03
2018-10-21T07:56:11.329Z,88.50
2018-10-21T08:01:30.031Z,88.23
2018-10-21T08:06:59.590Z,88.26
2018-10-21T08:12:18.134Z,88.77
2018-10-21T08:17:36.755Z,89.07
2018-10-21T08:35:36.216Z,89.08
2018-10-21T08:40:54.919Z,87.22
2018-10-21T08:46:13.606Z,87.06
2018-10-21T08:51:32.179Z,86.63
2018-10-21T08:56:50.852Z,84.71
2018-10-21T09:02:09.539Z,83.94
2018-10-21T09:07:28.055Z,84.04
2018-10-21T09:12:46.672Z,84.11
2018-10-21T09:18:05.527Z,80.88
2018-10-21T09:23:24.133Z,78.68
2018-10-21T09:28:42.679Z,79.80
2018-10-21T09:34:01.426Z,77.23
2018-10-21T09:39:20.102Z,74.12
2018-10-21T09:44:38.615Z,71.79
2018-10-21T09:49:57.148Z,66.43
2018-10-21T09:55:18.553Z,67.10
2018-10-21T10:00:42.170Z,68.27
2018-10-21T10:06:00.697Z,66.04
2018-10-21T10:11:19.415Z,64.76
2018-10-21T10:16:38.179Z,65.26
2018-10-21T10:21:56.832Z,63.41
2018-10-21T10:27:15.516Z,62.76
2018-10-21T10:32:34.228Z,62.35
2018-10-21T10:37:52.832Z,62.17
2018-10-21T10:43:12.162Z,62.98
2018-10-21T10:48:30.893Z,62.14
2018-10-21T10:53:50.905Z,62.15
2018-10-21T10:59:09.637Z,61.35
2018-10-21T11:04:28.332Z,61.67
2018-10-21T11:09:47.283Z,60.69
2018-10-21T11:15:07.089Z,59.52
2018-10-21T11:20:25.783Z,60.66
2018-10-21T11:25:44.496Z,59.56
2018-10-21T11:31:03.410Z,58.17
2018-10-21T11:36:30.607Z,57.08
2018-10-21T11:41:49.348Z,58.42
2018-10-21T11:47:08.134Z,57.05
2018-10-21T11:52:26.957Z,57.30
2018-10-21T11:57:45.682Z,57.25
2018-10-21T12:03:04.568Z,57.78
2018-10-21T12:08:23.524Z,57.62
2018-10-21T12:13:43.069Z,56.10
2018-10-21T12:19:02.530Z,55.72
2018-10-21T12:24:21.194Z,55.70
2018-10-21T12:29:39.747Z,56.27
2018-10-21T12:34:58.435Z,55.98
2018-10-21T12:40:17.076Z,55.95
2018-10-21T12:45:35.778Z,54.51
2018-10-21T12:50:54.198Z,54.32
2018-10-21T12:56:12.806Z,54.07
2018-10-21T13:01:31.375Z,54.48
2018-10-21T13:06:49.892Z,53.93
2018-10-21T13:12:08.445Z,53.64
2018-10-21T13:17:27.136Z,54.18
2018-10-21T13:22:45.785Z,53.51
2018-10-21T13:28:04.335Z,53.54
2018-10-21T13:33:22.888Z,53.23
2018-10-21T13:38:41.498Z,53.78
2018-10-21T13:44:00.153Z,53.61
2018-10-21T13:49:18.695Z,53.41
2018-10-21T13:54:37.198Z,52.64
2018-10-21T13:59:55.814Z,53.09
2018-10-21T14:05:14.402Z,54.44
2018-10-21T14:10:33.365Z,54.40
2018-10-21T14:15:52.161Z,55.19
2018-10-21T14:21:10.670Z,54.19
2018-10-21T14:26:29.526Z,53.10
2018-10-21T14:31:48.074Z,52.93
2018-10-21T14:37:06.656Z,55.26
2018-10-21T14:42:25.252Z,53.74
2018-10-21T14:47:43.846Z,54.48
2018-10-21T14:53:02.420Z,54.69
2018-10-21T14:58:21.008Z,55.14
2018-10-21T15:03:39.644Z,54.92
2018-10-21T15:08:58.236Z,55.18
2018-10-21T15:14:16.886Z,56.12
2018-10-21T15:19:35.379Z,56.93
2018-10-21T15:24:53.942Z,56.36
2018-10-21T15:30:13.052Z,57.56
2018-10-21T15:35:31.517Z,59.24
2018-10-21T15:40:50.046Z,60.78
2018-10-21T15:46:08.622Z,61.84
2018-10-21T15:51:27.091Z,61.74
2018-10-21T15:56:45.707Z,63.22
2018-10-21T16:02:04.398Z,63.77
2018-10-21T16:07:22.923Z,64.56
2018-10-21T16:12:41.528Z,65.49
2018-10-21T16:18:00.059Z,66.44
2018-10-21T16:23:18.594Z,68.48
2018-10-21T16:28:37.187Z,68.47
2018-10-21T16:33:55.751Z,68.48
2018-10-21T16:39:14.367Z,68.92
2018-10-21T16:44:32.838Z,69.37
2018-10-21T16:49:51.339Z,69.45
2018-10-21T16:55:10.571Z,69.85
2018-10-21T17:00:29.320Z,70.13
2018-10-21T17:05:47.745Z,70.17
2018-10-21T17:11:06.425Z,70.77
2018-10-21T17:16:24.947Z,70.78
2018-10-21T17:21:43.733Z,71.39
2018-10-21T17:27:02.241Z,72.85
2018-10-21T17:32:20.837Z,72.82
2018-10-21T17:37:39.755Z,72.82
2018-10-21T17:42:58.373Z,73.17
2018-10-21T17:48:16.930Z,73.60
2018-10-21T17:53:35.468Z,73.94
2018-10-21T17:58:54.021Z,74.20
2018-10-21T18:04:12.565Z,74.80
2018-10-21T18:09:31.056Z,74.71
2018-10-21T18:14:49.724Z,75.09
2018-10-21T18:20:09.358Z,75.44
2018-10-21T18:25:27.831Z,75.64
2018-10-21T18:30:46.990Z,75.97
2018-10-21T18:36:05.697Z,77.15
2018-10-21T18:41:24.323Z,76.98
2018-10-21T18:46:42.884Z,76.96
2018-10-21T18:52:01.429Z,77.20
2018-10-21T18:57:20.094Z,77.67
2018-10-21T19:02:38.600Z,78.16
2018-10-21T19:07:57.145Z,78.21
2018-10-21T19:13:15.736Z,78.50
2018-10-21T19:18:34.216Z,78.97
2018-10-21T19:23:52.740Z,79.02
2018-10-21T19:29:11.224Z,79.42
2018-10-21T19:34:30.632Z,79.83
2018-10-21T19:39:49.197Z,80.12
2018-10-21T19:45:08.670Z,80.24
2018-10-21T19:50:27.235Z,80.43
2018-10-21T19:55:45.752Z,80.72
2018-10-21T20:01:04.351Z,80.46
2018-10-21T20:06:22.959Z,80.56
2018-10-21T20:11:41.878Z,81.99
2018-10-21T20:17:00.414Z,81.36
2018-10-21T20:22:18.961Z,81.78
2018-10-21T20:27:37.533Z,82.47
2018-10-21T20:32:56.135Z,81.79
2018-10-21T20:38:14.626Z,82.30
2018-10-21T20:43:33.130Z,83.09
2018-10-21T20:48:51.697Z,83.22
2018-10-21T20:54:10.454Z,82.92
2018-10-21T20:59:29.065Z,82.47
2018-10-21T21:04:47.523Z,82.94
2018-10-21T21:10:06.942Z,83.33
2018-10-21T21:15:25.393Z,84.05
2018-10-21T21:20:43.986Z,83.99
2018-10-21T21:26:02.437Z,83.29
2018-10-21T21:31:20.951Z,83.80
2018-10-21T21:36:39.445Z,83.83
2018-10-21T21:41:57.981Z,83.35
2018-10-21T21:47:16.475Z,83.85
2018-10-21T21:52:34.975Z,83.64
2018-10-21T21:57:53.472Z,83.79
2018-10-21T22:03:11.999Z,83.60
2018-10-21T22:08:30.514Z,83.96
2018-10-21T22:13:49.047Z,84.34
2018-10-21T22:19:08.362Z,84.14
2018-10-21T22:24:26.851Z,84.09
2018-10-21T22:29:45.328Z,84.47
2018-10-21T22:35:04.722Z,84.84
2018-10-21T22:40:23.291Z,84.69
2018-10-21T22:45:41.805Z,85.32
2018-10-21T22:51:00.275Z,85.93
2018-10-21T22:56:18.759Z,85.28
2018-10-21T23:01:37.260Z,87.02
2018-10-21T23:06:55.794Z,86.20
2018-10-21T23:12:14.383Z,86.22
2018-10-21T23:17:32.856Z,86.47
2018-10-21T23:22:51.320Z,86.88
2018-10-21T23:28:09.907Z,86.58
2018-10-21T23:33:28.371Z,87.29
2018-10-21T23:38:46.936Z,86.66
2018-10-21T23:44:05.645Z,85.93
2018-10-21T23:49:24.152Z,86.09
2018-10-21T23:54:42.679Z,87.67
